Time;durP1;ratioP1;P1;durP2;ratioP2;P2;SDS_P1;SDS_P2;PMS_P1;PMS_P2;Temp;Humidity;BMP_temperature;BMP_pressure;BME280_temperature;BME280_humidity;BME280_pressure;Samples;Min_cycle;Max_cycle;Signal;HPM_P1;HPM_P2
2023/10/25 00:00:28;;;;;;;4.20;4.00;;;10.60;99.90;;;10.71;100.00;99397.13;4844478;28;24994;-67
2023/10/25 00:02:50;;;;;;;4.43;4.13;;;10.60;99.90;;;10.77;100.00;99401.81;4834788;28;24529;-68
2023/10/25 00:05:13;;;;;;;4.50;4.20;;;10.70;99.90;;;10.77;100.00;99403.56;4825472;28;24445;-69
2023/10/25 00:07:34;;;;;;;4.60;4.30;;;10.70;99.90;;;10.70;100.00;99405.09;4834111;28;25076;-68
2023/10/25 00:09:56;;;;;;;5.10;4.70;;;10.70;99.90;;;10.59;100.00;99405.25;4836035;28;24465;-66
2023/10/25 00:12:18;;;;;;;3.88;3.67;;;10.60;99.90;;;10.55;100.00;99399.50;4832349;28;24979;-67
2023/10/25 00:14:44;;;;;;;3.80;3.60;;;10.50;99.90;;;10.55;100.00;99391.69;4835118;28;24483;-69
2023/10/25 00:17:06;;;;;;;4.30;4.00;;;10.50;99.90;;;10.54;100.00;99384.78;4829451;28;24483;-68
2023/10/25 00:19:28;;;;;;;3.65;3.45;;;10.50;99.90;;;10.54;100.00;99394.44;4818826;28;24462;-67
2023/10/25 00:21:50;;;;;;;4.70;4.35;;;10.40;99.90;;;10.59;100.00;99394.81;4834884;28;24504;-67
2023/10/25 00:24:12;;;;;;;4.43;4.13;;;10.50;99.90;;;10.59;100.00;99387.81;4836810;28;24459;-67
2023/10/25 00:26:34;;;;;;;4.50;4.20;;;10.60;99.90;;;10.55;100.00;99390.84;4836519;28;24567;-67
2023/10/25 00:28:58;;;;;;;4.10;3.90;;;10.50;99.90;;;10.47;100.00;99391.56;4850428;28;24455;-68
2023/10/25 00:31:20;;;;;;;3.60;3.40;;;10.40;99.90;;;10.45;100.00;99396.09;4828727;28;24447;-67
2023/10/25 00:33:42;;;;;;;3.20;3.10;;;10.40;99.90;;;10.45;100.00;99387.44;4834872;28;24433;-67
2023/10/25 00:36:05;;;;;;;3.40;3.30;;;10.40;99.90;;;10.44;100.00;99391.81;4850677;28;24537;-65
2023/10/25 00:38:27;;;;;;;3.30;3.20;;;10.30;99.90;;;10.44;100.00;99399.66;4852063;28;25004;-67
2023/10/25 00:40:49;;;;;;;3.40;3.30;;;10.40;99.90;;;10.47;100.00;99394.16;4849640;28;20844;-68
2023/10/25 00:43:16;;;;;;;3.53;3.33;;;10.40;99.90;;;10.55;100.00;99401.28;4859967;28;24444;-67
2023/10/25 00:45:41;;;;;;;3.40;3.30;;;10.50;99.90;;;10.52;100.00;99393.75;4859996;28;25056;-69
2023/10/25 00:48:03;;;;;;;3.20;3.10;;;10.50;99.90;;;10.52;100.00;99391.13;4847586;28;25097;-68
2023/10/25 00:50:25;;;;;;;3.55;3.40;;;10.50;99.90;;;10.55;100.00;99404.72;4833891;28;24440;-68
2023/10/25 00:52:47;;;;;;;3.70;3.60;;;10.50;99.90;;;10.56;100.00;99397.72;4826257;28;24502;-68
2023/10/25 00:55:09;;;;;;;3.60;3.40;;;10.50;99.90;;;10.55;100.00;99403.88;4835755;28;24531;-68
2023/10/25 00:57:32;;;;;;;3.40;3.20;;;10.50;99.90;;;10.52;100.00;99404.97;4812963;28;25041;-68
2023/10/25 00:59:54;;;;;;;3.67;3.47;;;10.50;99.90;;;10.52;100.00;99397.16;4825112;28;24882;-69
2023/10/25 01:02:16;;;;;;;4.40;4.10;;;10.50;99.90;;;10.49;100.00;99394.84;4842640;28;24448;-68
2023/10/25 01:04:38;;;;;;;4.90;4.60;;;10.50;99.90;;;10.44;100.00;99391.00;4831853;28;24490;-68
2023/10/25 01:07:00;;;;;;;5.40;5.10;;;10.40;99.90;;;10.51;100.00;99389.47;4831833;28;24435;-68
2023/10/25 01:09:22;;;;;;;5.80;5.40;;;10.40;99.90;;;10.54;100.00;99397.03;4848166;28;25064;-67
2023/10/25 01:11:44;;;;;;;7.35;6.68;;;10.50;99.90;;;10.55;100.00;99391.69;4844415;28;24456;-68
2023/10/25 01:14:06;;;;;;;8.35;7.55;;;10.50;99.90;;;10.54;100.00;99390.00;4831255;28;24498;-67
2023/10/25 01:16:28;;;;;;;8.10;7.40;;;10.50;99.90;;;10.48;100.00;99385.34;4841247;28;24484;-68
2023/10/25 01:18:50;;;;;;;9.20;8.30;;;10.40;99.90;;;10.38;100.00;99384.56;4847681;28;24506;-67
2023/10/25 01:21:13;;;;;;;8.80;8.00;;;10.40;99.90;;;10.33;100.00;99386.75;4835572;28;24441;-68
2023/10/25 01:23:35;;;;;;;8.73;8.02;;;10.30;99.90;;;10.35;100.00;99378.81;4835706;28;24433;-67
2023/10/25 01:25:56;;;;;;;10.20;9.10;;;10.30;99.90;;;10.34;100.00;99383.19;4831026;28;24472;-67
2023/10/25 01:28:18;;;;;;;9.00;8.20;;;10.30;99.90;;;10.33;100.00;99380.75;4835492;28;24428;-69
2023/10/25 01:30:40;;;;;;;8.30;7.60;;;10.30;99.90;;;10.33;100.00;99380.75;4832204;28;24456;-67
2023/10/25 01:33:02;;;;;;;7.68;7.07;;;10.30;99.90;;;10.35;100.00;99378.81;4829949;28;24439;-68
2023/10/25 01:35:25;;;;;;;11.57;9.90;;;10.30;99.90;;;10.24;100.00;99377.19;4834213;28;24447;-68
2023/10/25 01:37:48;;;;;;;8.98;8.10;;;10.30;99.90;;;10.24;100.00;99381.56;4831407;28;24479;-67
2023/10/25 01:40:11;;;;;;;10.30;9.23;;;10.20;99.90;;;10.16;100.00;99384.03;4835508;28;24542;-68
2023/10/25 01:42:33;;;;;;;9.27;8.48;;;10.20;99.90;;;10.14;100.00;99387.59;4832404;28;25141;-68
2023/10/25 01:44:55;;;;;;;13.45;9.65;;;10.10;99.90;;;10.11;100.00;99381.84;4831624;28;24515;-68
2023/10/25 01:47:17;;;;;;;7.82;7.10;;;10.10;99.90;;;10.18;100.00;99385.53;4831051;28;24527;-67
2023/10/25 01:49:39;;;;;;;9.70;8.57;;;10.10;99.90;;;10.21;100.00;99376.59;4826572;28;24601;-68
2023/10/25 01:52:02;;;;;;;8.30;7.50;;;10.20;99.90;;;10.23;100.00;99375.50;4849329;28;25028;-67
2023/10/25 01:54:24;;;;;;;8.80;8.00;;;10.20;99.90;;;10.20;100.00;99378.38;4833178;28;24460;-68
2023/10/25 01:56:46;;;;;;;8.10;7.30;;;10.20;99.90;;;10.21;100.00;99371.41;4849725;28;24440;-68
2023/10/25 01:59:08;;;;;;;8.13;7.43;;;10.20;99.90;;;10.23;100.00;99370.31;4832143;28;24946;-68
2023/10/25 02:01:30;;;;;;;8.25;7.55;;;10.20;99.90;;;10.21;100.00;99367.00;4850472;28;24564;-68
2023/10/25 02:03:52;;;;;;;8.00;7.30;;;10.20;99.90;;;10.24;100.00;99356.31;4831053;28;24510;-66
2023/10/25 02:06:15;;;;;;;7.75;7.15;;;10.20;99.90;;;10.28;100.00;99357.69;4835092;28;24432;-68
2023/10/25 02:08:37;;;;;;;7.90;7.20;;;10.20;99.90;;;10.28;100.00;99354.25;4817362;28;24424;-68
2023/10/25 02:10:59;;;;;;;7.43;6.82;;;10.20;99.90;;;10.29;100.00;99356.72;4841962;28;24902;-67
2023/10/25 02:13:21;;;;;;;9.10;8.20;;;10.20;99.90;;;10.36;100.00;99357.81;4865270;28;24518;-68
2023/10/25 02:15:43;;;;;;;8.77;7.97;;;10.30;99.90;;;10.37;100.00;99363.84;4834195;28;24460;-67
2023/10/25 02:18:05;;;;;;;9.07;8.20;;;10.30;99.90;;;10.33;100.00;99365.09;4825602;28;24452;-67
2023/10/25 02:20:29;;;;;;;7.80;7.10;;;10.30;99.90;;;10.32;100.00;99361.66;4851838;28;24460;-67
2023/10/25 02:22:51;;;;;;;8.38;7.57;;;10.30;99.90;;;10.34;100.00;99359.72;4853081;28;24437;-68
2023/10/25 02:25:13;;;;;;;9.80;8.60;;;10.30;99.90;;;10.32;100.00;99359.06;4851760;28;24518;-68
2023/10/25 02:27:35;;;;;;;9.95;8.77;;;10.30;99.90;;;10.31;100.00;99352.19;4838985;28;24424;-67
2023/10/25 02:29:57;;;;;;;8.05;7.35;;;10.30;99.90;;;10.29;100.00;99359.31;4850876;28;24502;-66
2023/10/25 02:32:19;;;;;;;8.57;7.73;;;10.20;99.90;;;10.36;100.00;99368.22;4837708;28;24432;-68
2023/10/25 02:34:40;;;;;;;8.38;7.57;;;10.30;99.90;;;10.40;100.00;99372.22;4834013;28;25384;-68
2023/10/25 02:37:03;;;;;;;10.02;8.70;;;10.30;99.90;;;10.45;100.00;99374.41;4838896;28;25016;-68
2023/10/25 02:39:25;;;;;;;10.10;9.05;;;10.40;99.90;;;10.42;100.00;99367.66;4851552;28;24457;-67
2023/10/25 02:41:47;;;;;;;9.80;8.33;;;10.30;99.90;;;10.48;100.00;99359.28;4853679;28;24567;-67
2023/10/25 02:44:09;;;;;;;10.63;9.52;;;10.40;99.90;;;10.50;100.00;99357.34;4832180;28;24543;-67
2023/10/25 02:46:31;;;;;;;10.35;9.25;;;10.40;99.90;;;10.54;100.00;99348.28;4830828;28;24522;-67
2023/10/25 02:48:53;;;;;;;11.90;9.87;;;10.50;99.90;;;10.53;100.00;99351.03;4835190;28;24459;-65
2023/10/25 02:51:16;;;;;;;11.27;9.70;;;10.50;99.90;;;10.45;100.00;99345.72;4835128;28;24494;-67
2023/10/25 02:53:38;;;;;;;10.60;9.50;;;10.40;99.90;;;10.53;100.00;99346.66;4835342;28;24950;-67
2023/10/25 02:56:05;;;;;;;9.95;8.95;;;10.50;99.90;;;10.55;100.00;99336.91;4837304;28;24471;-67
2023/10/25 02:58:28;;;;;;;10.70;9.60;;;10.50;99.90;;;10.58;100.00;99338.41;4850518;28;24432;-68
2023/10/25 03:00:50;;;;;;;9.20;8.30;;;10.50;99.90;;;10.53;100.00;99336.22;4832458;28;24478;-66
2023/10/25 03:03:12;;;;;;;9.70;8.80;;;10.50;99.90;;;10.55;100.00;99329.09;4838282;28;24503;-69
2023/10/25 03:05:34;;;;;;;9.50;8.70;;;10.50;99.90;;;10.54;100.00;99327.44;4848801;28;24490;-67
2023/10/25 03:07:56;;;;;;;10.02;9.10;;;10.50;99.90;;;10.56;100.00;99324.69;4836931;28;24468;-67
2023/10/25 03:10:20;;;;;;;14.80;10.75;;;10.50;99.90;;;10.59;100.00;99319.19;4835832;28;24541;-67
2023/10/25 03:12:42;;;;;;;11.25;9.80;;;10.50;99.90;;;10.58;100.00;99322.78;4829834;28;24456;-67
2023/10/25 03:15:05;;;;;;;11.13;9.93;;;10.50;99.90;;;10.60;100.00;99323.44;4834487;28;24456;-67
2023/10/25 03:17:28;;;;;;;10.30;9.30;;;10.60;99.90;;;10.51;100.00;99317.28;4835791;28;24467;-67
2023/10/25 03:19:50;;;;;;;16.63;10.20;;;10.50;99.90;;;10.48;100.00;99322.78;4828403;28;24468;-67
2023/10/25 03:22:12;;;;;;;10.40;9.40;;;10.40;99.90;;;10.50;100.00;99315.63;4829742;28;25040;-68
2023/10/25 03:24:34;;;;;;;11.10;9.88;;;10.40;99.90;;;10.57;100.00;99315.88;4826246;28;24456;-68
2023/10/25 03:26:56;;;;;;;11.20;10.10;;;10.50;99.90;;;10.54;100.00;99310.97;4843960;28;24487;-68
2023/10/25 03:29:18;;;;;;;9.97;9.07;;;10.50;99.90;;;10.51;100.00;99296.44;4851784;28;24575;-68
2023/10/25 03:31:40;;;;;;;10.82;9.82;;;10.50;99.90;;;10.47;100.00;99300.28;4864704;28;24530;-68
2023/10/25 03:34:02;;;;;;;10.10;9.10;;;10.40;99.90;;;10.45;100.00;99302.22;4830503;28;24535;-68
2023/10/25 03:36:24;;;;;;;9.30;8.50;;;10.40;99.90;;;10.51;100.00;99301.66;4831320;28;24448;-68
2023/10/25 03:38:46;;;;;;;8.60;7.90;;;10.50;99.90;;;10.54;100.00;99290.91;4836988;28;24432;-68
2023/10/25 03:41:08;;;;;;;10.40;9.40;;;10.50;99.90;;;10.61;100.00;99286.78;4828727;28;24506;-68
2023/10/25 03:43:31;;;;;;;10.35;9.32;;;10.50;99.90;;;10.59;100.00;99286.09;4851518;28;24425;-68
2023/10/25 03:45:54;;;;;;;9.60;8.73;;;10.50;99.90;;;10.59;100.00;99286.09;4849335;28;24618;-68
2023/10/25 03:48:16;;;;;;;10.13;9.23;;;10.50;99.90;;;10.61;100.00;99280.72;4836288;28;24436;-67
2023/10/25 03:50:38;;;;;;;11.50;10.20;;;10.50;99.90;;;10.61;100.00;99271.13;4834249;28;25056;-68
2023/10/25 03:53:00;;;;;;;10.80;9.70;;;10.50;99.90;;;10.58;100.00;99268.81;4834708;28;24448;-68
2023/10/25 03:55:22;;;;;;;14.73;11.27;;;10.50;99.90;;;10.53;100.00;99267.59;4818760;28;25007;-67
2023/10/25 03:57:44;;;;;;;10.77;9.77;;;10.50;99.90;;;10.57;100.00;99271.56;4849860;28;24471;-68
2023/10/25 04:00:07;;;;;;;11.80;10.00;;;10.50;99.90;;;10.49;100.00;99263.63;4836319;28;25013;-68
2023/10/25 04:02:29;;;;;;;11.88;10.68;;;10.50;99.90;;;10.48;100.00;99264.59;4830578;28;24437;-69
2023/10/25 04:04:50;;;;;;;11.90;10.57;;;10.40;99.90;;;10.46;100.00;99262.13;4826824;28;24460;-67
2023/10/25 04:07:12;;;;;;;10.57;9.57;;;10.40;99.90;;;10.49;100.00;99254.03;4836373;28;24441;-68
2023/10/25 04:09:34;;;;;;;9.93;9.02;;;10.40;99.90;;;10.51;100.00;99254.72;4836106;28;24444;-67
2023/10/25 04:11:56;;;;;;;10.90;9.80;;;10.40;99.90;;;10.58;100.00;99255.78;4825894;28;24890;-68
2023/10/25 04:14:19;;;;;;;10.18;9.27;;;10.50;99.90;;;10.61;100.00;99244.22;4835424;28;24531;-68
2023/10/25 04:16:41;;;;;;;12.63;11.35;;;10.50;99.90;;;10.60;100.00;99240.81;4843463;28;24475;-68
2023/10/25 04:19:03;;;;;;;11.82;10.63;;;10.50;99.90;;;10.61;100.00;99239.84;4817893;28;24567;-68
2023/10/25 04:21:25;;;;;;;12.15;10.75;;;10.60;99.90;;;10.65;100.00;99241.19;4851538;28;24888;-68
2023/10/25 04:23:47;;;;;;;29.00;12.38;;;10.60;99.90;;;10.65;100.00;99242.97;4834551;28;24483;-68
2023/10/25 04:26:12;;;;;;;10.88;9.77;;;10.60;99.90;;;10.68;100.00;99240.09;4836435;28;24433;-68
2023/10/25 04:28:36;;;;;;;11.30;10.10;;;10.60;99.90;;;10.72;100.00;99237.03;4829919;28;24448;-68
2023/10/25 04:30:58;;;;;;;11.35;10.25;;;10.70;99.90;;;10.70;100.00;99233.75;4835792;28;24523;-68
2023/10/25 04:33:20;;;;;;;12.20;10.88;;;10.70;99.90;;;10.74;100.00;99235.13;4845272;28;24477;-67
2023/10/25 04:35:44;;;;;;;12.68;11.05;;;10.70;99.90;;;10.71;100.00;99237.19;4851435;28;24536;-68
2023/10/25 04:38:05;;;;;;;13.07;11.77;;;10.70;99.90;;;10.72;100.00;99233.59;4835050;28;24524;-67
2023/10/25 04:40:27;;;;;;;13.05;11.73;;;10.70;99.90;;;10.70;100.00;99233.75;4836027;28;24487;-68
2023/10/25 04:42:53;;;;;;;12.65;11.27;;;10.70;99.90;;;10.73;100.00;99230.84;4828931;28;24466;-67
2023/10/25 04:45:16;;;;;;;14.80;12.25;;;10.70;99.90;;;10.66;100.00;99235.03;4827082;28;24937;-68
2023/10/25 04:47:38;;;;;;;17.25;12.95;;;10.60;99.90;;;10.64;100.00;99229.13;4835464;28;24982;-68
2023/10/25 04:50:04;;;;;;;18.05;12.38;;;10.60;99.90;;;10.70;100.00;99225.94;4816561;28;24540;-68
2023/10/25 04:52:26;;;;;;;12.10;10.80;;;10.70;99.90;;;10.73;100.00;99230.03;4834352;28;24543;-68
2023/10/25 04:54:47;;;;;;;13.13;11.73;;;10.70;99.90;;;10.69;100.00;99226.88;4829220;28;20869;-68
2023/10/25 04:57:12;;;;;;;17.75;12.68;;;10.70;99.90;;;10.66;100.00;99221.97;4833782;28;24547;-68
2023/10/25 04:59:34;;;;;;;14.95;12.43;;;10.60;99.90;;;10.69;100.00;99211.22;4844419;28;24565;-69
2023/10/25 05:01:56;;;;;;;12.80;11.50;;;10.70;99.90;;;10.68;100.00;99207.00;4832072;28;25096;-68
2023/10/25 05:04:18;;;;;;;11.95;10.75;;;10.70;99.90;;;10.73;100.00;99214.41;4835268;28;24495;-68
2023/10/25 05:06:40;;;;;;;15.38;12.65;;;10.70;99.90;;;10.68;100.00;99208.78;4824535;28;24523;-68
2023/10/25 05:09:04;;;;;;;12.23;10.98;;;10.70;99.90;;;10.71;100.00;99205.91;4835859;28;24531;-68
2023/10/25 05:11:30;;;;;;;14.65;12.38;;;10.70;99.90;;;10.68;100.00;99196.56;4831897;28;24444;-68
2023/10/25 05:13:52;;;;;;;17.43;13.60;;;10.60;99.90;;;10.71;100.00;99188.44;4842094;28;24554;-68
2023/10/25 05:16:14;;;;;;;12.73;10.95;;;10.70;99.90;;;10.80;100.00;99186.75;4863950;28;25310;-69
2023/10/25 05:18:37;;;;;;;15.93;13.00;;;10.70;99.90;;;10.84;100.00;99188.91;4831082;28;24476;-68
2023/10/25 05:21:01;;;;;;;26.88;14.70;;;10.80;99.90;;;10.85;100.00;99181.91;4835803;28;24547;-68
2023/10/25 05:23:32;;;;;;;16.83;12.70;;;10.80;99.90;;;10.87;100.00;99187.81;4838159;28;25057;-68
2023/10/25 05:25:54;;;;;;;14.70;12.30;;;10.80;99.90;;;10.92;100.00;99183.78;4846020;28;24542;-68
2023/10/25 05:28:16;;;;;;;17.10;12.50;;;10.90;99.90;;;10.94;100.00;99187.06;4831547;28;24989;-68
2023/10/25 05:30:38;;;;;;;13.20;11.30;;;10.90;99.90;;;10.99;100.00;99185.81;4861527;28;24522;-70
2023/10/25 05:33:02;;;;;;;13.73;12.13;;;10.90;99.90;;;11.06;100.00;99184.25;4832493;28;24468;-68
2023/10/25 05:35:24;;;;;;;13.10;11.55;;;11.00;99.90;;;11.09;100.00;99186.56;4832947;28;24506;-68
2023/10/25 05:37:47;;;;;;;15.43;12.57;;;11.10;99.90;;;11.04;100.00;99180.97;4832966;28;24543;-68
2023/10/25 05:40:09;;;;;;;17.00;12.65;;;11.00;99.90;;;10.95;100.00;99172.22;4835747;28;24453;-68
2023/10/25 05:42:48;;;;;;;14.35;12.00;;;11.00;99.90;;;10.97;100.00;99166.88;4829903;28;24814;-68
2023/10/25 05:45:10;;;;;;;17.60;12.88;;;11.00;99.90;;;10.93;100.00;99172.38;4844652;28;24451;-68
2023/10/25 05:47:32;;;;;;;12.57;10.88;;;10.90;99.90;;;10.91;100.00;99178.72;4832674;28;24420;-68
2023/10/25 05:49:54;;;;;;;15.75;12.45;;;10.90;99.90;;;10.93;100.00;99176.78;4834919;28;24544;-68
2023/10/25 05:52:17;;;;;;;15.25;13.30;;;10.90;99.90;;;10.92;100.00;99172.53;4831099;28;24503;-69
2023/10/25 05:54:39;;;;;;;13.82;11.68;;;10.90;99.90;;;10.90;100.00;99171.88;4833747;28;24444;-68
2023/10/25 05:57:03;;;;;;;13.10;11.43;;;10.90;99.90;;;10.94;100.00;99168.00;4834910;28;24986;-68
2023/10/25 05:59:25;;;;;;;14.05;11.57;;;10.90;99.90;;;10.92;100.00;99160.28;4829714;28;24503;-68
2023/10/25 06:01:59;;;;;;;13.00;11.18;;;10.90;99.90;;;10.91;100.00;99145.63;4833955;28;24527;-68
2023/10/25 06:04:23;;;;;;;12.32;10.77;;;10.90;99.90;;;10.88;100.00;99145.91;4831452;28;25035;-67
2023/10/25 06:06:45;;;;;;;13.32;11.30;;;10.90;99.90;;;10.85;100.00;99138.38;4849813;28;24445;-68
2023/10/25 06:09:08;;;;;;;19.67;13.07;;;10.80;99.90;;;10.75;100.00;99132.38;4829351;28;24457;-68
2023/10/25 06:11:31;;;;;;;12.65;11.23;;;10.70;99.90;;;10.78;100.00;99121.66;4830095;28;24451;-68
2023/10/25 06:13:53;;;;;;;17.90;13.27;;;10.70;99.90;;;10.78;100.00;99123.44;4845872;28;24434;-66
2023/10/25 06:16:15;;;;;;;12.85;11.40;;;10.70;99.90;;;10.84;100.00;99118.47;4827824;28;24532;-68
2023/10/25 06:18:37;;;;;;;13.32;11.57;;;10.80;99.90;;;10.91;100.00;99114.31;4849189;28;24439;-68
2023/10/25 06:20:59;;;;;;;13.40;11.40;;;10.80;99.90;;;10.96;100.00;99119.09;4843215;28;24543;-68
2023/10/25 06:23:21;;;;;;;12.25;10.82;;;10.90;99.90;;;11.03;100.00;99117.50;4847291;28;25001;-68
2023/10/25 06:25:43;;;;;;;13.30;11.60;;;11.00;99.90;;;11.01;100.00;99123.84;4849350;28;24431;-68
2023/10/25 06:28:06;;;;;;;12.80;11.02;;;10.90;99.90;;;11.12;100.00;99116.59;4828703;28;24448;-68
2023/10/25 06:30:28;;;;;;;11.45;10.25;;;11.00;99.90;;;11.30;100.00;99119.22;4843325;28;24448;-68
2023/10/25 06:32:51;;;;;;;11.35;10.25;;;11.20;99.90;;;11.69;100.00;99112.69;4833718;28;24448;-69
2023/10/25 06:35:13;;;;;;;11.88;10.68;;;11.50;99.90;;;12.22;100.00;99105.41;4833068;28;20770;-68
2023/10/25 06:37:35;;;;;;;11.45;10.25;;;11.90;99.90;;;12.77;100.00;99115.41;4833335;28;24452;-68
2023/10/25 06:39:58;;;;;;;9.93;9.02;;;12.40;99.90;;;13.11;100.00;99110.91;4835033;28;24454;-68
2023/10/25 06:42:20;;;;;;;10.53;9.53;;;12.90;99.90;;;13.06;100.00;99110.56;4831369;28;24528;-68
2023/10/25 06:44:42;;;;;;;9.00;8.20;;;13.00;99.90;;;13.07;100.00;99106.97;4828346;28;25065;-68
2023/10/25 06:47:06;;;;;;;8.70;8.00;;;13.00;99.90;;;12.87;99.40;99100.38;4816911;28;24937;-68
2023/10/25 06:49:28;;;;;;;9.88;8.98;;;12.90;99.90;;;12.65;98.66;99088.72;4829225;28;24870;-67
2023/10/25 06:51:50;;;;;;;8.00;7.40;;;12.70;99.90;;;12.40;99.38;99081.78;4854944;28;24459;-67
2023/10/25 06:54:13;;;;;;;8.40;7.70;;;12.50;99.90;;;12.23;100.00;99082.72;4832281;28;24499;-68
2023/10/25 06:56:35;;;;;;;7.70;7.10;;;12.30;99.90;;;12.08;100.00;99081.66;4829969;28;24591;-69
2023/10/25 06:58:58;;;;;;;9.15;8.35;;;12.10;99.90;;;11.99;100.00;99070.34;4825353;28;24503;-69
2023/10/25 07:01:23;;;;;;;8.10;7.50;;;12.00;99.90;;;11.94;100.00;99063.97;4830641;28;24460;-68
2023/10/25 07:03:49;;;;;;;8.38;7.57;;;11.90;99.90;;;11.94;100.00;99070.03;4848581;28;24447;-68
2023/10/25 07:06:12;;;;;;;8.20;7.50;;;11.90;99.90;;;11.97;100.00;99069.69;4829495;28;24535;-68
2023/10/25 07:08:34;;;;;;;8.25;7.55;;;11.90;99.90;;;12.06;100.00;99068.75;4835617;28;20773;-69
2023/10/25 07:10:56;;;;;;;8.15;7.45;;;12.00;99.90;;;12.19;100.00;99071.75;4831594;28;24495;-68
2023/10/25 07:13:18;;;;;;;9.60;8.10;;;12.10;99.90;;;12.42;100.00;99070.19;4853908;28;24475;-68
2023/10/25 07:15:40;;;;;;;8.93;8.13;;;12.30;99.90;;;12.98;100.00;99068.66;4821212;28;24451;-69
2023/10/25 07:18:02;;;;;;;11.55;10.10;;;12.70;99.90;;;12.57;99.36;99061.72;4836055;28;24978;-70
2023/10/25 07:20:24;;;;;;;11.52;10.18;;;12.30;99.90;;;12.10;100.00;99064.84;4832128;28;24559;-69
2023/10/25 07:22:46;;;;;;;12.75;11.30;;;11.80;99.90;;;11.78;100.00;99054.25;4850302;28;24439;-70
2023/10/25 07:25:09;;;;;;;11.13;9.68;;;11.50;99.90;;;11.81;100.00;99048.72;4834576;28;20771;-69
2023/10/25 07:27:31;;;;;;;10.13;8.95;;;11.50;99.90;;;11.84;100.00;99048.41;4848690;28;24503;-68
2023/10/25 07:29:54;;;;;;;11.60;10.10;;;11.50;99.90;;;11.84;100.00;99045.78;4853397;28;25041;-70
2023/10/25 07:32:16;;;;;;;10.25;8.90;;;11.40;99.90;;;12.04;100.00;99047.19;4830684;28;24444;-70
2023/10/25 07:34:38;;;;;;;10.13;8.65;;;11.60;99.90;;;13.92;93.29;99040.84;4835053;28;24441;-70
2023/10/25 07:36:59;;;;;;;8.33;7.53;;;12.40;99.90;;;13.89;93.34;99025.44;4830947;28;24451;-70
2023/10/25 07:39:22;;;;;;;9.20;8.30;;;12.70;99.90;;;13.98;92.30;99032.31;4831208;28;24449;-69
2023/10/25 07:41:43;;;;;;;9.50;8.50;;;12.80;99.90;;;14.35;90.19;99029.84;4819628;28;24540;-70
2023/10/25 07:44:05;;;;;;;7.40;6.70;;;12.90;99.90;;;14.98;86.76;99020.88;4833043;28;25053;-69
2023/10/25 07:46:27;;;;;;;9.23;6.78;;;13.50;99.90;;;18.01;71.09;99015.09;4833970;28;25291;-70
2023/10/25 07:48:50;;;;;;;7.65;6.95;;;15.20;99.90;;;14.84;86.75;99003.28;4836260;28;24510;-70
2023/10/25 07:51:12;;;;;;;7.65;6.93;;;14.10;99.90;;;16.55;81.02;99009.91;4833491;28;24502;-70
2023/10/25 07:53:34;;;;;;;7.60;6.75;;;13.90;99.90;;;17.75;73.59;98999.13;4818386;28;24452;-70
2023/10/25 07:55:56;;;;;;;7.03;6.43;;;15.00;99.90;;;18.77;69.94;99010.44;4845162;28;24439;-71
2023/10/25 07:58:22;;;;;;;6.55;6.05;;;16.20;99.90;;;18.05;69.91;99004.94;4849903;28;24466;-68
2023/10/25 08:00:50;;;;;;;6.90;6.20;;;17.30;99.90;;;19.55;66.78;99022.88;4826795;28;24544;-69
2023/10/25 08:03:15;;;;;;;6.33;5.90;;;17.10;99.90;;;16.72;77.43;99014.75;4836838;28;24511;-68
2023/10/25 08:05:37;;;;;;;7.05;6.35;;;16.00;99.90;;;15.50;83.69;99016.50;4834070;28;24498;-70
2023/10/25 08:07:59;;;;;;;8.02;6.15;;;15.10;99.90;;;14.14;90.75;99010.44;4836553;28;24495;-70
2023/10/25 08:10:21;;;;;;;7.30;6.70;;;14.10;99.90;;;13.50;94.40;98996.59;4835162;28;24443;-70
2023/10/25 08:12:43;;;;;;;6.50;5.90;;;13.50;99.90;;;13.80;93.75;99001.06;4860228;28;24451;-69
2023/10/25 08:15:06;;;;;;;6.32;5.82;;;13.30;99.90;;;16.40;81.79;99004.66;4848477;28;24524;-70
2023/10/25 08:17:28;;;;;;;7.40;5.78;;;14.40;99.90;;;18.46;69.84;98998.59;4834672;28;25002;-70
2023/10/25 08:19:50;;;;;;;4.95;4.55;;;16.00;99.90;;;18.75;68.42;98996.63;4830383;28;24615;-70
2023/10/25 08:22:12;;;;;;;5.13;4.82;;;16.20;99.90;;;20.16;63.64;98986.25;4833609;28;24507;-70
2023/10/25 08:24:34;;;;;;;5.38;4.20;;;17.00;99.90;;;21.71;57.70;98976.50;4834735;28;24432;-70
2023/10/25 08:26:58;;;;;;;5.07;4.55;;;17.60;99.90;;;17.28;72.82;98965.56;4851621;28;24424;-70
2023/10/25 08:29:20;;;;;;;5.43;4.93;;;16.30;99.90;;;15.30;82.17;98963.63;4828408;28;25013;-70
2023/10/25 08:31:46;;;;;;;4.60;4.30;;;15.10;99.90;;;15.14;83.53;98962.97;4849849;28;24448;-70
2023/10/25 08:34:11;;;;;;;4.90;4.60;;;14.70;99.90;;;15.00;85.50;98966.38;4835662;28;24783;-69
2023/10/25 08:36:35;;;;;;;5.90;5.40;;;14.30;99.90;;;14.73;88.38;98955.47;4834619;28;24480;-69
2023/10/25 08:38:58;;;;;;;5.43;4.93;;;14.10;99.90;;;16.11;81.46;98949.50;4835500;28;24625;-69
2023/10/25 08:41:23;;;;;;;5.20;4.90;;;14.60;99.90;;;14.62;86.94;98941.94;4816465;28;24455;-70
2023/10/25 08:43:45;;;;;;;4.43;4.22;;;14.10;99.90;;;13.58;91.19;98943.34;4835332;28;24426;-71
2023/10/25 08:46:09;;;;;;;4.63;4.32;;;13.50;99.90;;;13.10;94.13;98949.53;4830997;28;24488;-69
2023/10/25 08:48:32;;;;;;;4.60;4.30;;;13.10;99.90;;;12.91;94.55;98939.38;4834622;28;24842;-70
2023/10/25 08:50:56;;;;;;;4.28;4.00;;;12.80;99.90;;;12.78;94.87;98934.66;4850843;28;24444;-69
2023/10/25 08:53:25;;;;;;;4.93;4.53;;;12.70;99.90;;;12.77;96.24;98935.66;4826345;28;24449;-70
2023/10/25 08:55:52;;;;;;;4.78;4.40;;;12.70;99.90;;;12.61;96.79;98919.94;4851104;28;24531;-70
2023/10/25 08:58:15;;;;;;;4.15;3.90;;;12.60;99.90;;;12.71;95.38;98909.34;4866991;28;24516;-69
2023/10/25 09:00:38;;;;;;;4.20;4.00;;;12.60;99.90;;;12.64;96.42;98916.19;4830790;28;24496;-70
2023/10/25 09:03:30;;;;;;;4.40;4.10;;;12.60;99.90;;;12.43;97.19;98914.91;4835810;28;24428;-70
2023/10/25 09:05:52;;;;;;;4.10;3.90;;;12.40;99.90;;;12.58;97.95;98912.44;4826482;28;24830;-69
2023/10/25 09:08:15;;;;;;;4.68;4.38;;;12.40;99.90;;;12.36;98.07;98920.94;4835899;28;24448;-69
2023/10/25 09:10:37;;;;;;;4.45;4.15;;;12.40;99.90;;;12.41;98.24;98919.47;4832970;28;24484;-70
2023/10/25 09:12:59;;;;;;;4.85;4.45;;;12.30;99.90;;;12.32;98.84;98914.41;4818782;28;24437;-70
2023/10/25 09:15:30;;;;;;;4.70;4.40;;;12.20;99.90;;;12.27;99.33;98925.34;4816836;28;24532;-69
2023/10/25 09:17:52;;;;;;;5.10;4.75;;;12.30;99.90;;;12.23;100.00;98917.97;4830999;28;24767;-69
2023/10/25 09:20:26;;;;;;;5.30;4.90;;;12.10;99.90;;;12.19;100.00;98921.91;4830416;28;24436;-69
2023/10/25 09:22:48;;;;;;;5.32;4.97;;;12.10;99.90;;;12.16;100.00;98912.56;4848254;28;24448;-69
2023/10/25 09:25:10;;;;;;;4.80;4.50;;;12.20;99.90;;;12.09;100.00;98911.59;4832313;28;24451;-70
2023/10/25 09:27:42;;;;;;;4.75;4.50;;;12.10;99.90;;;12.28;100.00;98905.25;4831573;28;24879;-70
2023/10/25 09:30:15;;;;;;;6.30;4.70;;;12.10;99.90;;;12.20;100.00;98910.47;4850870;28;24591;-70
2023/10/25 09:32:51;;;;;;;5.10;4.80;;;12.20;99.90;;;12.14;100.00;98903.25;4830931;28;24506;-69
2023/10/25 09:35:13;;;;;;;4.75;4.40;;;12.10;99.90;;;12.24;100.00;98898.72;4835443;28;25054;-70
2023/10/25 09:37:35;;;;;;;5.03;4.57;;;12.10;99.90;;;12.21;100.00;98901.63;4835730;28;24533;-70
2023/10/25 09:39:57;;;;;;;4.97;4.67;;;12.10;99.90;;;12.09;100.00;98900.31;4844092;28;25074;-70
2023/10/25 09:42:25;;;;;;;5.47;5.18;;;12.10;99.90;;;12.07;100.00;98903.13;4832109;28;24543;-70
2023/10/25 09:44:54;;;;;;;6.00;5.50;;;12.00;99.90;;;12.13;100.00;98901.63;4831634;28;24447;-70
2023/10/25 09:47:18;;;;;;;6.70;6.20;;;12.00;99.90;;;12.14;100.00;98895.41;4833908;28;24460;-70
2023/10/25 09:49:44;;;;;;;6.90;6.40;;;12.00;99.90;;;12.04;100.00;98892.13;4831748;28;25084;-70
2023/10/25 09:52:19;;;;;;;7.53;6.88;;;12.00;99.90;;;12.12;100.00;98884.31;4845577;28;24969;-70